sensor_id;sensor_type;location;lat;lon;timestamp;pressure;altitude;pressure_sealevel;temperature;humidity
81125;BME280;72192;52.114;5.424;2023-09-19T00:02:54;100824.13;;;13.13;100.00
81125;BME280;72192;52.114;5.424;2023-09-19T00:05:46;100818.06;;;13.11;100.00
81125;BME280;72192;52.114;5.424;2023-09-19T00:08:35;100832.81;;;13.09;100.00
81125;BME280;72192;52.114;5.424;2023-09-19T00:11:23;100827.41;;;13.09;100.00
81125;BME280;72192;52.114;5.424;2023-09-19T00:14:13;100831.97;;;13.08;100.00
81125;BME280;72192;52.114;5.424;2023-09-19T00:17:02;100842.00;;;13.08;100.00
81125;BME280;72192;52.114;5.424;2023-09-19T00:19:52;100839.09;;;13.09;100.00
81125;BME280;72192;52.114;5.424;2023-09-19T00:22:40;100842.28;;;13.13;100.00
81125;BME280;72192;52.114;5.424;2023-09-19T00:25:29;100840.59;;;13.12;100.00
81125;BME280;72192;52.114;5.424;2023-09-19T00:27:59;100834.31;;;13.11;100.00
81125;BME280;72192;52.114;5.424;2023-09-19T00:30:28;100833.47;;;13.11;100.00
81125;BME280;72192;52.114;5.424;2023-09-19T00:33:18;100842.47;;;13.11;100.00
81125;BME280;72192;52.114;5.424;2023-09-19T00:36:06;100847.03;;;13.11;100.00
81125;BME280;72192;52.114;5.424;2023-09-19T00:38:54;100846.84;;;13.12;100.00
81125;BME280;72192;52.114;5.424;2023-09-19T00:41:42;100849.38;;;13.14;100.00
81125;BME280;72192;52.114;5.424;2023-09-19T00:44:31;100847.31;;;13.16;100.00
81125;BME280;72192;52.114;5.424;2023-09-19T00:47:21;100846.16;;;13.18;100.00
81125;BME280;72192;52.114;5.424;2023-09-19T00:50:10;100847.66;;;13.21;100.00
81125;BME280;72192;52.114;5.424;2023-09-19T00:52:42;100849.34;;;13.22;100.00
81125;BME280;72192;52.114;5.424;2023-09-19T00:55:31;100851.50;;;13.27;100.00
81125;BME280;72192;52.114;5.424;2023-09-19T00:58:19;100851.16;;;13.30;100.00
81125;BME280;72192;52.114;5.424;2023-09-19T01:01:08;100855.19;;;13.34;100.00
81125;BME280;72192;52.114;5.424;2023-09-19T01:03:58;100869.41;;;13.36;100.00
81125;BME280;72192;52.114;5.424;2023-09-19T01:06:46;100868.03;;;13.40;100.00
81125;BME280;72192;52.114;5.424;2023-09-19T01:09:20;100863.94;;;13.44;100.00
81125;BME280;72192;52.114;5.424;2023-09-19T01:12:09;100869.00;;;13.47;100.00
81125;BME280;72192;52.114;5.424;2023-09-19T01:15:11;100869.66;;;13.49;100.00
81125;BME280;72192;52.114;5.424;2023-09-19T01:24:50;100873.56;;;13.46;100.00
81125;BME280;72192;52.114;5.424;2023-09-19T01:31:09;100869.66;;;13.49;100.00
81125;BME280;72192;52.114;5.424;2023-09-19T01:34:01;100872.00;;;13.52;100.00
81125;BME280;72192;52.114;5.424;2023-09-19T01:36:55;100872.84;;;13.53;100.00
81125;BME280;72192;52.114;5.424;2023-09-19T01:39:43;100872.47;;;13.56;100.00
81125;BME280;72192;52.114;5.424;2023-09-19T01:42:35;100868.91;;;13.55;100.00
81125;BME280;72192;52.114;5.424;2023-09-19T01:45:37;100873.50;;;13.55;100.00
81125;BME280;72192;52.114;5.424;2023-09-19T01:48:35;100877.25;;;13.54;100.00
81125;BME280;72192;52.114;5.424;2023-09-19T01:54:51;100884.00;;;13.58;100.00
81125;BME280;72192;52.114;5.424;2023-09-19T01:58:07;100876.72;;;13.58;100.00
81125;BME280;72192;52.114;5.424;2023-09-19T02:01:04;100883.81;;;13.59;100.00
81125;BME280;72192;52.114;5.424;2023-09-19T02:03:55;100885.69;;;13.59;100.00
81125;BME280;72192;52.114;5.424;2023-09-19T02:06:43;100889.25;;;13.59;100.00
81125;BME280;72192;52.114;5.424;2023-09-19T02:09:34;100888.59;;;13.57;100.00
81125;BME280;72192;52.114;5.424;2023-09-19T02:12:24;100887.72;;;13.57;100.00
81125;BME280;72192;52.114;5.424;2023-09-19T02:14:53;100885.38;;;13.54;100.00
81125;BME280;72192;52.114;5.424;2023-09-19T02:17:44;100878.63;;;13.49;100.00
81125;BME280;72192;52.114;5.424;2023-09-19T02:20:32;100871.34;;;13.50;100.00
81125;BME280;72192;52.114;5.424;2023-09-19T02:23:20;100871.72;;;13.47;99.40
81125;BME280;72192;52.114;5.424;2023-09-19T02:26:09;100873.75;;;13.45;99.58
81125;BME280;72192;52.114;5.424;2023-09-19T02:28:39;100879.53;;;13.42;99.21
81125;BME280;72192;52.114;5.424;2023-09-19T02:31:27;100883.75;;;13.44;98.63
81125;BME280;72192;52.114;5.424;2023-09-19T02:34:16;100892.72;;;13.45;99.10
81125;BME280;72192;52.114;5.424;2023-09-19T02:37:07;100886.28;;;13.46;97.76
81125;BME280;72192;52.114;5.424;2023-09-19T02:39:36;100882.06;;;13.43;98.93
81125;BME280;72192;52.114;5.424;2023-09-19T02:42:24;100898.22;;;13.37;98.59
81125;BME280;72192;52.114;5.424;2023-09-19T02:45:12;100896.63;;;13.28;98.86
81125;BME280;72192;52.114;5.424;2023-09-19T02:48:00;100890.03;;;13.22;99.05
81125;BME280;72192;52.114;5.424;2023-09-19T02:50:52;100896.50;;;13.13;97.51
81125;BME280;72192;52.114;5.424;2023-09-19T02:53:40;100890.94;;;13.06;97.56
81125;BME280;72192;52.114;5.424;2023-09-19T02:56:29;100895.22;;;13.01;97.48
81125;BME280;72192;52.114;5.424;2023-09-19T02:59:18;100887.97;;;12.93;97.33
81125;BME280;72192;52.114;5.424;2023-09-19T03:01:47;100903.75;;;12.89;96.83
81125;BME280;72192;52.114;5.424;2023-09-19T03:04:16;100898.00;;;12.84;97.39
81125;BME280;72192;52.114;5.424;2023-09-19T03:07:06;100896.69;;;12.80;97.76
81125;BME280;72192;52.114;5.424;2023-09-19T03:09:57;100891.13;;;12.74;97.62
81125;BME280;72192;52.114;5.424;2023-09-19T03:12:46;100886.06;;;12.71;97.92
81125;BME280;72192;52.114;5.424;2023-09-19T03:15:34;100884.91;;;12.65;96.90
81125;BME280;72192;52.114;5.424;2023-09-19T03:18:25;100889.16;;;12.59;96.67
81125;BME280;72192;52.114;5.424;2023-09-19T03:21:15;100894.91;;;12.56;96.56
81125;BME280;72192;52.114;5.424;2023-09-19T03:23:44;100899.00;;;12.52;96.31
81125;BME280;72192;52.114;5.424;2023-09-19T03:26:32;100897.66;;;12.48;97.26
81125;BME280;72192;52.114;5.424;2023-09-19T03:29:20;100892.94;;;12.42;96.89
81125;BME280;72192;52.114;5.424;2023-09-19T03:32:09;100897.84;;;12.39;97.68
81125;BME280;72192;52.114;5.424;2023-09-19T03:34:38;100893.63;;;12.36;96.72
81125;BME280;72192;52.114;5.424;2023-09-19T03:37:29;100903.97;;;12.32;97.19
81125;BME280;72192;52.114;5.424;2023-09-19T03:40:18;100903.47;;;12.29;96.66
81125;BME280;72192;52.114;5.424;2023-09-19T03:43:08;100891.13;;;12.26;95.85
81125;BME280;72192;52.114;5.424;2023-09-19T03:45:56;100886.75;;;12.25;95.45
81125;BME280;72192;52.114;5.424;2023-09-19T03:48:49;100883.38;;;12.23;94.65
81125;BME280;72192;52.114;5.424;2023-09-19T03:51:37;100884.56;;;12.21;94.94
81125;BME280;72192;52.114;5.424;2023-09-19T03:54:28;100894.03;;;12.17;94.35
81125;BME280;72192;52.114;5.424;2023-09-19T03:57:16;100885.41;;;12.13;95.12
81125;BME280;72192;52.114;5.424;2023-09-19T04:00:07;100892.69;;;12.13;95.20
81125;BME280;72192;52.114;5.424;2023-09-19T04:02:58;100896.59;;;12.10;94.05
81125;BME280;72192;52.114;5.424;2023-09-19T04:05:48;100903.72;;;12.11;93.59
81125;BME280;72192;52.114;5.424;2023-09-19T04:08:37;100910.63;;;12.14;94.12
81125;BME280;72192;52.114;5.424;2023-09-19T04:11:26;100919.94;;;12.11;94.23
81125;BME280;72192;52.114;5.424;2023-09-19T04:14:14;100927.38;;;12.09;94.56
81125;BME280;72192;52.114;5.424;2023-09-19T04:17:02;100932.09;;;12.07;94.42
81125;BME280;72192;52.114;5.424;2023-09-19T04:19:51;100927.06;;;12.04;93.74
81125;BME280;72192;52.114;5.424;2023-09-19T04:22:40;100932.47;;;12.04;94.26
81125;BME280;72192;52.114;5.424;2023-09-19T04:25:28;100930.94;;;12.01;93.22
81125;BME280;72192;52.114;5.424;2023-09-19T04:28:17;100939.91;;;12.02;92.92
81125;BME280;72192;52.114;5.424;2023-09-19T04:31:05;100937.34;;;12.09;92.03
81125;BME280;72192;52.114;5.424;2023-09-19T04:33:54;100948.03;;;12.10;92.54
81125;BME280;72192;52.114;5.424;2023-09-19T04:36:43;100952.75;;;12.08;93.61
81125;BME280;72192;52.114;5.424;2023-09-19T04:39:31;100964.41;;;12.09;92.81
81125;BME280;72192;52.114;5.424;2023-09-19T04:42:20;100952.25;;;12.13;91.59
81125;BME280;72192;52.114;5.424;2023-09-19T04:45:11;100968.13;;;12.16;92.39
81125;BME280;72192;52.114;5.424;2023-09-19T04:47:59;100966.63;;;12.21;94.33
81125;BME280;72192;52.114;5.424;2023-09-19T04:50:48;100965.25;;;12.17;92.62
81125;BME280;72192;52.114;5.424;2023-09-19T04:53:37;100965.06;;;12.19;92.66
81125;BME280;72192;52.114;5.424;2023-09-19T04:56:25;100964.22;;;12.18;93.39
81125;BME280;72192;52.114;5.424;2023-09-19T04:59:15;100951.72;;;12.17;91.45
81125;BME280;72192;52.114;5.424;2023-09-19T05:02:03;100955.28;;;12.18;91.90
81125;BME280;72192;52.114;5.424;2023-09-19T05:04:52;100953.09;;;12.21;91.34
81125;BME280;72192;52.114;5.424;2023-09-19T05:07:21;100958.31;;;12.23;91.69
81125;BME280;72192;52.114;5.424;2023-09-19T05:10:10;100960.19;;;12.22;91.84
81125;BME280;72192;52.114;5.424;2023-09-19T05:12:59;100965.59;;;12.22;92.54
81125;BME280;72192;52.114;5.424;2023-09-19T05:15:47;100963.06;;;12.21;94.97
81125;BME280;72192;52.114;5.424;2023-09-19T05:18:17;100970.34;;;12.20;92.97
81125;BME280;72192;52.114;5.424;2023-09-19T05:21:05;100980.47;;;12.18;92.51
81125;BME280;72192;52.114;5.424;2023-09-19T05:23:54;100971.19;;;12.21;92.26
81125;BME280;72192;52.114;5.424;2023-09-19T05:26:23;100963.56;;;12.16;92.82
81125;BME280;72192;52.114;5.424;2023-09-19T05:29:11;100980.47;;;12.18;91.78
81125;BME280;72192;52.114;5.424;2023-09-19T05:32:00;100968.66;;;12.19;92.87
81125;BME280;72192;52.114;5.424;2023-09-19T05:34:48;100965.78;;;12.21;91.63
81125;BME280;72192;52.114;5.424;2023-09-19T05:37:39;100965.75;;;12.29;90.93
81125;BME280;72192;52.114;5.424;2023-09-19T05:40:27;100957.13;;;12.33;90.86
81125;BME280;72192;52.114;5.424;2023-09-19T05:42:57;100959.63;;;12.43;90.53
81125;BME280;72192;52.114;5.424;2023-09-19T05:45:45;100960.47;;;12.52;90.26
81125;BME280;72192;52.114;5.424;2023-09-19T05:48:33;100970.09;;;12.54;89.92
81125;BME280;72192;52.114;5.424;2023-09-19T05:51:21;100973.16;;;12.59;89.33
81125;BME280;72192;52.114;5.424;2023-09-19T05:54:10;100979.03;;;12.63;89.79
81125;BME280;72192;52.114;5.424;2023-09-19T05:56:58;100977.00;;;12.65;89.21
81125;BME280;72192;52.114;5.424;2023-09-19T05:59:46;100979.22;;;12.70;89.98
81125;BME280;72192;52.114;5.424;2023-09-19T06:02:37;100978.00;;;12.72;88.32
81125;BME280;72192;52.114;5.424;2023-09-19T06:05:27;100983.06;;;12.75;88.55
81125;BME280;72192;52.114;5.424;2023-09-19T06:08:19;100989.31;;;12.76;89.56
81125;BME280;72192;52.114;5.424;2023-09-19T06:11:07;100980.34;;;12.75;88.93
81125;BME280;72192;52.114;5.424;2023-09-19T06:13:55;100992.69;;;12.78;88.62
81125;BME280;72192;52.114;5.424;2023-09-19T06:16:44;101001.34;;;12.81;88.50
81125;BME280;72192;52.114;5.424;2023-09-19T06:19:32;100996.41;;;12.85;88.63
81125;BME280;72192;52.114;5.424;2023-09-19T06:22:20;101004.03;;;12.89;88.32
81125;BME280;72192;52.114;5.424;2023-09-19T06:25:09;101007.88;;;12.95;88.20
81125;BME280;72192;52.114;5.424;2023-09-19T06:27:59;100999.25;;;13.00;88.10
81125;BME280;72192;52.114;5.424;2023-09-19T06:30:51;101005.63;;;13.07;88.37
81125;BME280;72192;52.114;5.424;2023-09-19T06:33:40;101004.09;;;13.12;88.10
81125;BME280;72192;52.114;5.424;2023-09-19T06:36:29;101000.84;;;13.17;88.11
81125;BME280;72192;52.114;5.424;2023-09-19T06:39:17;100990.00;;;13.25;88.29
81125;BME280;72192;52.114;5.424;2023-09-19T06:42:06;100989.47;;;13.30;87.76
81125;BME280;72192;52.114;5.424;2023-09-19T06:44:55;100990.44;;;13.37;87.39
81125;BME280;72192;52.114;5.424;2023-09-19T06:47:24;100980.38;;;13.45;87.75
81125;BME280;72192;52.114;5.424;2023-09-19T06:50:12;100981.84;;;13.56;87.04
81125;BME280;72192;52.114;5.424;2023-09-19T06:53:01;100991.09;;;13.70;86.87
81125;BME280;72192;52.114;5.424;2023-09-19T06:55:50;100988.97;;;13.80;86.70
81125;BME280;72192;52.114;5.424;2023-09-19T06:58:19;100990.94;;;13.86;86.55
81125;BME280;72192;52.114;5.424;2023-09-19T07:01:07;100991.72;;;13.95;86.30
81125;BME280;72192;52.114;5.424;2023-09-19T07:03:56;100991.84;;;14.01;86.22
81125;BME280;72192;52.114;5.424;2023-09-19T07:06:50;100985.88;;;14.06;86.13
81125;BME280;72192;52.114;5.424;2023-09-19T07:09:39;100986.63;;;14.15;85.34
81125;BME280;72192;52.114;5.424;2023-09-19T07:12:28;100990.78;;;14.25;85.41
81125;BME280;72192;52.114;5.424;2023-09-19T07:14:59;100977.31;;;14.32;84.93
81125;BME280;72192;52.114;5.424;2023-09-19T07:17:47;100989.59;;;14.43;84.60
81125;BME280;72192;52.114;5.424;2023-09-19T07:20:37;100990.50;;;14.58;84.12
81125;BME280;72192;52.114;5.424;2023-09-19T07:23:25;100997.03;;;14.63;83.81
81125;BME280;72192;52.114;5.424;2023-09-19T07:26:14;101005.13;;;14.72;83.61
81125;BME280;72192;52.114;5.424;2023-09-19T07:29:02;101003.16;;;14.80;83.55
81125;BME280;72192;52.114;5.424;2023-09-19T07:31:50;101008.13;;;14.77;82.68
81125;BME280;72192;52.114;5.424;2023-09-19T07:34:19;100997.91;;;14.79;82.67
81125;BME280;72192;52.114;5.424;2023-09-19T07:37:09;101019.47;;;14.80;82.27
81125;BME280;72192;52.114;5.424;2023-09-19T07:40:00;101016.28;;;14.91;82.38
81125;BME280;72192;52.114;5.424;2023-09-19T07:42:49;101010.53;;;15.01;81.78
81125;BME280;72192;52.114;5.424;2023-09-19T07:45:37;101008.78;;;15.08;82.42
81125;BME280;72192;52.114;5.424;2023-09-19T07:48:26;101009.50;;;15.17;81.74
81125;BME280;72192;52.114;5.424;2023-09-19T07:51:14;101012.00;;;15.33;81.30
81125;BME280;72192;52.114;5.424;2023-09-19T07:53:56;101018.19;;;15.42;80.20
81125;BME280;72192;52.114;5.424;2023-09-19T07:56:45;101018.47;;;15.47;80.69
81125;BME280;72192;52.114;5.424;2023-09-19T07:59:33;101015.53;;;15.48;79.66
81125;BME280;72192;52.114;5.424;2023-09-19T08:02:22;101014.94;;;15.53;80.44
81125;BME280;72192;52.114;5.424;2023-09-19T08:05:12;101009.91;;;15.50;80.24
81125;BME280;72192;52.114;5.424;2023-09-19T08:08:04;101018.44;;;15.62;80.65
81125;BME280;72192;52.114;5.424;2023-09-19T08:10:55;101017.09;;;15.72;79.96
81125;BME280;72192;52.114;5.424;2023-09-19T08:13:44;101027.09;;;15.87;80.12
81125;BME280;72192;52.114;5.424;2023-09-19T08:16:35;101017.38;;;15.99;79.56
81125;BME280;72192;52.114;5.424;2023-09-19T08:19:23;101018.47;;;16.04;78.89
81125;BME280;72192;52.114;5.424;2023-09-19T08:22:15;101024.50;;;16.00;79.50
81125;BME280;72192;52.114;5.424;2023-09-19T08:25:04;101016.84;;;16.10;80.05
81125;BME280;72192;52.114;5.424;2023-09-19T08:27:35;101015.66;;;16.19;79.35
81125;BME280;72192;52.114;5.424;2023-09-19T08:30:23;101009.03;;;16.28;78.70
81125;BME280;72192;52.114;5.424;2023-09-19T08:33:13;101017.91;;;16.37;78.35
81125;BME280;72192;52.114;5.424;2023-09-19T08:36:02;101016.47;;;16.41;78.38
81125;BME280;72192;52.114;5.424;2023-09-19T08:38:51;101014.53;;;16.35;78.33
81125;BME280;72192;52.114;5.424;2023-09-19T08:41:20;101004.88;;;16.32;77.92
81125;BME280;72192;52.114;5.424;2023-09-19T08:44:07;101009.28;;;16.33;78.61
81125;BME280;72192;52.114;5.424;2023-09-19T08:47:09;101009.09;;;16.35;78.68
81125;BME280;72192;52.114;5.424;2023-09-19T08:50:07;101002.84;;;16.41;77.75
81125;BME280;72192;52.114;5.424;2023-09-19T08:53:31;101001.63;;;16.44;78.32
81125;BME280;72192;52.114;5.424;2023-09-19T08:56:41;101006.41;;;16.42;78.00
81125;BME280;72192;52.114;5.424;2023-09-19T08:59:24;101004.13;;;16.45;78.07
81125;BME280;72192;52.114;5.424;2023-09-19T09:02:11;101005.91;;;16.59;76.81
81125;BME280;72192;52.114;5.424;2023-09-19T09:04:54;101004.38;;;16.78;76.81
81125;BME280;72192;52.114;5.424;2023-09-19T09:07:36;101019.56;;;16.87;75.99
81125;BME280;72192;52.114;5.424;2023-09-19T09:10:17;101015.41;;;16.98;76.30
81125;BME280;72192;52.114;5.424;2023-09-19T09:13:00;101014.44;;;17.12;73.73
81125;BME280;72192;52.114;5.424;2023-09-19T09:15:42;101007.75;;;17.15;74.10
81125;BME280;72192;52.114;5.424;2023-09-19T09:18:31;100998.34;;;17.24;73.74
81125;BME280;72192;52.114;5.424;2023-09-19T09:21:26;101000.69;;;17.34;73.33
81125;BME280;72192;52.114;5.424;2023-09-19T09:24:28;100997.75;;;17.35;73.23
81125;BME280;72192;52.114;5.424;2023-09-19T09:27:21;100990.81;;;17.39;72.90
81125;BME280;72192;52.114;5.424;2023-09-19T09:30:33;100984.75;;;17.44;72.54
81125;BME280;72192;52.114;5.424;2023-09-19T09:33:23;100987.22;;;17.26;71.78
81125;BME280;72192;52.114;5.424;2023-09-19T09:36:37;100991.66;;;17.33;72.61
81125;BME280;72192;52.114;5.424;2023-09-19T09:39:31;100996.97;;;17.55;71.61
81125;BME280;72192;52.114;5.424;2023-09-19T09:42:35;100976.81;;;17.62;71.11
81125;BME280;72192;52.114;5.424;2023-09-19T09:45:27;100987.59;;;17.70;70.91
81125;BME280;72192;52.114;5.424;2023-09-19T09:48:25;100969.31;;;17.77;71.36
81125;BME280;72192;52.114;5.424;2023-09-19T09:50:59;100970.81;;;17.93;70.01
81125;BME280;72192;52.114;5.424;2023-09-19T09:53:51;100975.22;;;18.08;69.60
81125;BME280;72192;52.114;5.424;2023-09-19T09:56:56;100967.88;;;18.21;70.01
81125;BME280;72192;52.114;5.424;2023-09-19T09:59:53;100970.59;;;18.21;69.07
81125;BME280;72192;52.114;5.424;2023-09-19T10:03:01;100968.09;;;18.20;69.81
81125;BME280;72192;52.114;5.424;2023-09-19T10:05:54;100976.28;;;18.20;69.27
81125;BME280;72192;52.114;5.424;2023-09-19T10:08:23;100971.03;;;18.12;69.20
81125;BME280;72192;52.114;5.424;2023-09-19T10:11:18;100957.34;;;18.12;69.20
81125;BME280;72192;52.114;5.424;2023-09-19T10:14:12;100973.53;;;18.13;69.87
81125;BME280;72192;52.114;5.424;2023-09-19T10:16:53;100977.13;;;18.00;69.03
81125;BME280;72192;52.114;5.424;2023-09-19T10:19:56;100977.53;;;17.84;69.56
81125;BME280;72192;52.114;5.424;2023-09-19T10:22:47;100983.41;;;17.81;70.64
81125;BME280;72192;52.114;5.424;2023-09-19T10:25:44;100982.13;;;17.77;70.83
81125;BME280;72192;52.114;5.424;2023-09-19T10:28:46;100969.13;;;17.92;70.31
81125;BME280;72192;52.114;5.424;2023-09-19T10:31:38;100965.97;;;18.35;68.19
81125;BME280;72192;52.114;5.424;2023-09-19T10:34:33;100962.34;;;18.74;68.13
81125;BME280;72192;52.114;5.424;2023-09-19T10:37:24;100946.75;;;18.81;66.63
81125;BME280;72192;52.114;5.424;2023-09-19T10:40:16;100941.13;;;18.70;65.79
81125;BME280;72192;52.114;5.424;2023-09-19T10:43:07;100944.25;;;18.60;67.42
81125;BME280;72192;52.114;5.424;2023-09-19T10:46:08;100945.50;;;18.64;67.77
81125;BME280;72192;52.114;5.424;2023-09-19T10:49:00;100935.34;;;18.91;67.01
81125;BME280;72192;52.114;5.424;2023-09-19T10:51:52;100922.72;;;18.90;66.60
81125;BME280;72192;52.114;5.424;2023-09-19T10:54:48;100930.97;;;18.77;66.76
81125;BME280;72192;52.114;5.424;2023-09-19T10:57:44;100931.19;;;18.62;67.51
81125;BME280;72192;52.114;5.424;2023-09-19T11:00:51;100917.97;;;18.59;67.55
81125;BME280;72192;52.114;5.424;2023-09-19T11:03:42;100916.69;;;18.61;66.83
81125;BME280;72192;52.114;5.424;2023-09-19T11:06:30;100912.69;;;18.71;67.44
81125;BME280;72192;52.114;5.424;2023-09-19T11:09:19;100901.06;;;18.82;66.53
81125;BME280;72192;52.114;5.424;2023-09-19T11:21:51;100903.44;;;18.72;66.03
81125;BME280;72192;52.114;5.424;2023-09-19T11:24:41;100904.66;;;18.76;66.53
81125;BME280;72192;52.114;5.424;2023-09-19T11:27:29;100905.41;;;18.96;66.24
81125;BME280;72192;52.114;5.424;2023-09-19T11:30:27;100888.50;;;19.12;64.81
81125;BME280;72192;52.114;5.424;2023-09-19T11:33:30;100894.06;;;18.92;66.05
81125;BME280;72192;52.114;5.424;2023-09-19T11:36:35;100903.97;;;18.87;66.47
81125;BME280;72192;52.114;5.424;2023-09-19T11:39:26;100901.09;;;18.75;66.62
81125;BME280;72192;52.114;5.424;2023-09-19T11:42:41;100887.63;;;18.74;67.00
81125;BME280;72192;52.114;5.424;2023-09-19T11:48:38;100882.59;;;18.71;66.71
81125;BME280;72192;52.114;5.424;2023-09-19T11:51:40;100884.63;;;18.88;67.32
81125;BME280;72192;52.114;5.424;2023-09-19T11:54:31;100887.88;;;19.10;65.23
81125;BME280;72192;52.114;5.424;2023-09-19T11:57:01;100884.84;;;19.25;64.75
81125;BME280;72192;52.114;5.424;2023-09-19T11:59:51;100877.81;;;19.36;64.12
81125;BME280;72192;52.114;5.424;2023-09-19T12:02:42;100882.09;;;19.25;63.27
81125;BME280;72192;52.114;5.424;2023-09-19T12:05:35;100873.97;;;19.12;63.53
81125;BME280;72192;52.114;5.424;2023-09-19T12:08:23;100907.69;;;19.06;64.20
81125;BME280;72192;52.114;5.424;2023-09-19T12:11:15;100903.34;;;18.98;64.70
81125;BME280;72192;52.114;5.424;2023-09-19T12:14:04;100898.88;;;19.04;63.90
81125;BME280;72192;52.114;5.424;2023-09-19T12:16:55;100899.00;;;19.15;63.49
81125;BME280;72192;52.114;5.424;2023-09-19T12:19:51;100897.69;;;19.25;63.46
81125;BME280;72192;52.114;5.424;2023-09-19T12:22:45;100891.59;;;19.23;64.30
81125;BME280;72192;52.114;5.424;2023-09-19T12:25:45;100891.16;;;19.26;64.18
81125;BME280;72192;52.114;5.424;2023-09-19T12:28:41;100872.47;;;19.16;63.62
81125;BME280;72192;52.114;5.424;2023-09-19T12:31:30;100886.72;;;18.93;64.61
81125;BME280;72192;52.114;5.424;2023-09-19T12:34:28;100894.75;;;18.88;65.50
81125;BME280;72192;52.114;5.424;2023-09-19T12:37:23;100883.59;;;18.83;65.65
81125;BME280;72192;52.114;5.424;2023-09-19T12:40:14;100881.25;;;18.86;65.14
81125;BME280;72192;52.114;5.424;2023-09-19T12:43:05;100885.28;;;18.84;64.97
81125;BME280;72192;52.114;5.424;2023-09-19T12:45:55;100876.28;;;18.70;65.74
81125;BME280;72192;52.114;5.424;2023-09-19T12:48:45;100882.59;;;18.57;66.01
81125;BME280;72192;52.114;5.424;2023-09-19T12:51:35;100900.28;;;18.48;66.70
81125;BME280;72192;52.114;5.424;2023-09-19T12:54:23;100887.06;;;18.45;67.08
81125;BME280;72192;52.114;5.424;2023-09-19T12:57:24;100875.94;;;18.40;67.42
81125;BME280;72192;52.114;5.424;2023-09-19T13:00:12;100886.00;;;18.46;67.03
81125;BME280;72192;52.114;5.424;2023-09-19T13:06:36;100888.69;;;18.79;66.63
81125;BME280;72192;52.114;5.424;2023-09-19T13:09:30;100884.22;;;18.85;66.14
81125;BME280;72192;52.114;5.424;2023-09-19T13:12:37;100890.28;;;18.94;66.72
81125;BME280;72192;52.114;5.424;2023-09-19T13:15:52;100885.72;;;18.81;66.42
81125;BME280;72192;52.114;5.424;2023-09-19T13:18:47;100888.47;;;18.68;66.49
81125;BME280;72192;52.114;5.424;2023-09-19T13:21:41;100901.56;;;18.59;67.12
81125;BME280;72192;52.114;5.424;2023-09-19T13:24:36;100904.06;;;18.54;68.44
81125;BME280;72192;52.114;5.424;2023-09-19T13:27:28;100907.47;;;18.43;68.83
81125;BME280;72192;52.114;5.424;2023-09-19T13:30:16;100901.22;;;18.22;68.86
81125;BME280;72192;52.114;5.424;2023-09-19T13:33:11;100903.72;;;18.24;69.98
81125;BME280;72192;52.114;5.424;2023-09-19T13:36:06;100887.88;;;18.59;69.16
81125;BME280;72192;52.114;5.424;2023-09-19T13:38:54;100893.47;;;18.84;67.79
81125;BME280;72192;52.114;5.424;2023-09-19T13:41:47;100896.81;;;18.92;67.34
81125;BME280;72192;52.114;5.424;2023-09-19T13:44:37;100879.47;;;19.12;67.29
81125;BME280;72192;52.114;5.424;2023-09-19T13:47:27;100878.16;;;19.14;66.54
81125;BME280;72192;52.114;5.424;2023-09-19T13:50:16;100877.34;;;19.07;66.25
81125;BME280;72192;52.114;5.424;2023-09-19T13:53:10;100871.63;;;19.15;66.10
81125;BME280;72192;52.114;5.424;2023-09-19T13:55:58;100866.38;;;19.14;65.98
81125;BME280;72192;52.114;5.424;2023-09-19T13:58:48;100875.50;;;19.08;66.76
81125;BME280;72192;52.114;5.424;2023-09-19T14:01:36;100868.38;;;18.94;66.74
81125;BME280;72192;52.114;5.424;2023-09-19T14:04:26;100868.25;;;18.82;66.98
81125;BME280;72192;52.114;5.424;2023-09-19T14:07:16;100861.50;;;18.78;67.09
81125;BME280;72192;52.114;5.424;2023-09-19T14:10:05;100865.72;;;18.80;67.11
81125;BME280;72192;52.114;5.424;2023-09-19T14:12:57;100883.81;;;18.81;67.23
81125;BME280;72192;52.114;5.424;2023-09-19T14:15:49;100863.22;;;18.79;66.88
81125;BME280;72192;52.114;5.424;2023-09-19T14:18:37;100868.69;;;18.72;66.90
81125;BME280;72192;52.114;5.424;2023-09-19T14:21:29;100878.81;;;18.65;67.71
81125;BME280;72192;52.114;5.424;2023-09-19T14:24:19;100877.56;;;18.61;67.94
81125;BME280;72192;52.114;5.424;2023-09-19T14:27:13;100860.31;;;18.60;66.72
81125;BME280;72192;52.114;5.424;2023-09-19T14:29:56;100882.81;;;18.62;67.08
81125;BME280;72192;52.114;5.424;2023-09-19T14:32:50;100871.63;;;18.64;67.29
81125;BME280;72192;52.114;5.424;2023-09-19T14:35:40;100866.16;;;18.64;67.60
81125;BME280;72192;52.114;5.424;2023-09-19T14:38:20;100876.72;;;18.60;67.90
81125;BME280;72192;52.114;5.424;2023-09-19T14:41:12;100862.59;;;18.63;67.93
81125;BME280;72192;52.114;5.424;2023-09-19T14:44:03;100864.91;;;18.67;67.55
81125;BME280;72192;52.114;5.424;2023-09-19T14:46:52;100864.50;;;18.63;68.28
81125;BME280;72192;52.114;5.424;2023-09-19T14:49:41;100860.31;;;18.54;67.81
81125;BME280;72192;52.114;5.424;2023-09-19T14:52:30;100863.91;;;18.48;67.90
81125;BME280;72192;52.114;5.424;2023-09-19T14:55:19;100876.34;;;18.44;68.01
81125;BME280;72192;52.114;5.424;2023-09-19T14:58:09;100880.75;;;18.38;68.47
81125;BME280;72192;52.114;5.424;2023-09-19T15:01:09;100884.38;;;18.32;69.10
81125;BME280;72192;52.114;5.424;2023-09-19T15:03:58;100892.34;;;18.27;69.27
81125;BME280;72192;52.114;5.424;2023-09-19T15:06:47;100907.09;;;18.19;70.03
81125;BME280;72192;52.114;5.424;2023-09-19T15:09:35;100893.00;;;18.09;71.92
81125;BME280;72192;52.114;5.424;2023-09-19T15:12:24;100900.81;;;17.92;72.86
81125;BME280;72192;52.114;5.424;2023-09-19T15:15:12;100890.28;;;17.89;72.36